Аэропорт: Большое Савино. Пермь

ICAO: USPP

METAR:
2020-09-28 03:00:00
USPP 280300Z 25002MPS 9000 3200NE BR NSC 05/05 Q1033 R21/090060 TEMPO 2000 BR RMK QFE764
METAR:
2020-09-28 01:55:00
TAF USPP 280155Z 2803/2903 23003MPS 6000 NSC BECMG 2804/2805 27003G08MPS CAVOK